Time;durP1;ratioP1;P1;durP2;ratioP2;P2;SDS_P1;SDS_P2;PMS_P1;PMS_P2;Temp;Humidity;BMP_temperature;BMP_pressure;BME280_temperature;BME280_humidity;BME280_pressure;Samples;Min_cycle;Max_cycle;Signal;HPM_P1;HPM_P2
2022/09/17 00:00:40;;;;;;;1.10;0.80;;;;;;;10.07;100.00;97788.56;5099784;28;20640;-64
2022/09/17 00:03:07;;;;;;;1.93;0.93;;;;;;;9.98;100.00;97794.50;5090555;28;20219;-62
2022/09/17 00:05:36;;;;;;;1.60;1.00;;;;;;;10.00;100.00;97797.84;5101219;28;20256;-64
2022/09/17 00:08:03;;;;;;;2.03;1.20;;;;;;;9.95;100.00;97800.81;5100324;28;20268;-63
2022/09/17 00:10:29;;;;;;;1.37;0.90;;;;;;;9.98;100.00;97799.75;5099487;28;20219;-63
2022/09/17 00:12:56;;;;;;;1.57;0.83;;;;;;;10.05;100.00;97801.03;5090386;28;20632;-63
2022/09/17 00:15:23;;;;;;;1.73;0.90;;;;;;;10.15;100.00;97796.78;5100932;28;20538;-63
2022/09/17 00:17:56;;;;;;;2.30;0.93;;;;;;;10.21;100.00;97802.44;5100690;28;20275;-63
2022/09/17 00:20:23;;;;;;;1.10;0.90;;;;;;;10.20;100.00;97806.06;5097679;28;20250;-63
2022/09/17 00:22:50;;;;;;;1.17;0.80;;;;;;;10.27;100.00;97801.19;5099363;28;20255;-63
2022/09/17 00:25:16;;;;;;;1.50;0.90;;;;;;;10.35;100.00;97796.16;5098443;28;20263;-63
2022/09/17 00:27:43;;;;;;;2.20;1.20;;;;;;;10.40;100.00;97808.06;5100122;28;20535;-63
2022/09/17 00:30:11;;;;;;;0.80;0.80;;;;;;;10.47;100.00;97805.84;5099432;28;20504;-63
2022/09/17 00:32:38;;;;;;;2.50;0.90;;;;;;;10.51;100.00;97807.31;5090455;28;20370;-63
2022/09/17 00:35:07;;;;;;;1.93;1.00;;;;;;;10.57;100.00;97799.75;5100979;28;20265;-63
2022/09/17 00:37:34;;;;;;;2.27;0.90;;;;;;;10.64;100.00;97808.06;5099941;28;20268;-62
2022/09/17 00:40:01;;;;;;;1.00;0.90;;;;;;;10.67;100.00;97803.41;5099291;28;20331;-63
2022/09/17 00:42:27;;;;;;;1.43;0.80;;;;;;;10.69;100.00;97808.53;5099259;28;20623;-62
2022/09/17 00:44:56;;;;;;;1.50;0.90;;;;;;;10.66;100.00;97808.78;5103384;28;20258;-63
2022/09/17 00:47:28;;;;;;;1.57;0.80;;;;;;;10.54;100.00;97801.78;5103380;28;20701;-63
2022/09/17 00:50:09;;;;;;;0.93;0.77;;;;;;;10.39;100.00;97801.09;5103373;28;20244;-63
2022/09/17 00:52:43;;;;;;;3.03;1.10;;;;;;;10.24;100.00;97796.09;5103528;28;20242;-63
2022/09/17 00:55:15;;;;;;;0.90;0.90;;;;;;;10.08;100.00;97791.09;5104656;28;20261;-62
2022/09/17 00:57:42;;;;;;;1.37;1.00;;;;;;;9.94;100.00;97787.72;5103216;28;20268;-63
2022/09/17 01:00:10;;;;;;;1.20;1.00;;;;;;;9.83;100.00;97795.56;5093915;28;20665;-63
2022/09/17 01:02:39;;;;;;;1.70;0.80;;;;;;;9.72;100.00;97803.44;5105050;28;20226;-63
2022/09/17 01:05:07;;;;;;;3.40;1.10;;;;;;;9.63;100.00;97798.78;5103619;28;20259;-63
2022/09/17 01:07:54;;;;;;;2.50;1.07;;;;;;;9.54;100.00;97804.72;5103045;28;20630;-63
2022/09/17 01:10:38;;;;;;;2.37;1.67;;;;;;;9.41;100.00;97809.16;5103362;28;20659;-64
2022/09/17 01:13:20;;;;;;;2.23;1.50;;;;;;;9.42;100.00;97811.69;5094312;28;20323;-63
2022/09/17 01:15:55;;;;;;;2.37;1.60;;;;;;;9.39;100.00;97814.56;5102741;28;20264;-63
2022/09/17 01:18:32;;;;;;;1.93;1.33;;;;;;;9.37;100.00;97818.25;5104699;28;20264;-62
2022/09/17 01:21:25;;;;;;;1.50;1.17;;;;;;;9.33;100.00;97824.66;5096262;28;20674;-63
2022/09/17 01:24:20;;;;;;;1.40;1.30;;;;;;;9.32;100.00;97825.63;5094628;28;20260;-63
2022/09/17 01:27:18;;;;;;;1.47;1.20;;;;;;;9.41;100.00;97820.56;5102575;28;20225;-63
2022/09/17 01:30:06;;;;;;;1.20;1.10;;;;;;;9.54;100.00;97823.19;5094316;28;20650;-63
2022/09/17 01:32:38;;;;;;;2.80;1.47;;;;;;;9.57;100.00;97821.19;5101227;28;20226;-64
2022/09/17 01:35:13;;;;;;;2.67;1.47;;;;;;;9.56;100.00;97808.09;5102477;28;20305;-63
2022/09/17 01:37:49;;;;;;;1.87;1.20;;;;;;;9.52;100.00;97822.44;5100599;28;20228;-63
2022/09/17 01:40:28;;;;;;;1.83;1.30;;;;;;;9.50;100.00;97824.34;5099468;28;20270;-63
2022/09/17 01:43:00;;;;;;;1.53;1.37;;;;;;;9.65;100.00;97831.19;5102255;28;20544;-63
2022/09/17 01:45:32;;;;;;;1.70;1.43;;;;;;;9.75;100.00;97829.59;5092945;28;20643;-63
2022/09/17 01:48:07;;;;;;;2.70;1.40;;;;;;;9.86;100.00;97832.31;5104248;28;20226;-63
2022/09/17 01:50:39;;;;;;;2.47;1.30;;;;;;;9.90;100.00;97828.53;5100951;28;20625;-63
2022/09/17 01:53:09;;;;;;;1.90;1.53;;;;;;;9.95;100.00;97831.66;5101710;28;20668;-63
2022/09/17 01:55:38;;;;;;;2.07;1.13;;;;;;;9.90;100.00;97831.97;5100910;28;20231;-63
2022/09/17 01:58:13;;;;;;;1.57;1.40;;;;;;;9.87;100.00;97834.84;5103130;28;20268;-64
2022/09/17 02:00:43;;;;;;;2.33;1.27;;;;;;;9.78;100.00;97830.22;5101445;28;20329;-63
2022/09/17 02:03:17;;;;;;;4.00;1.43;;;;;;;9.65;100.00;97839.09;5100046;28;20226;-63
2022/09/17 02:05:50;;;;;;;1.60;1.10;;;;;;;9.60;100.00;97841.22;5104800;28;20229;-64
2022/09/17 02:08:21;;;;;;;2.10;1.30;;;;;;;9.55;100.00;97833.63;5101824;28;20315;-63
2022/09/17 02:10:54;;;;;;;1.97;1.40;;;;;;;9.58;100.00;97827.28;5101655;28;20266;-63
2022/09/17 02:13:23;;;;;;;1.80;1.47;;;;;;;9.48;100.00;97828.91;5102610;28;20258;-62
2022/09/17 02:15:54;;;;;;;1.67;1.27;;;;;;;9.60;100.00;97828.88;5102775;28;20222;-63
2022/09/17 02:18:29;;;;;;;2.73;1.60;;;;;;;9.66;100.00;97825.81;5101538;28;20280;-62
2022/09/17 02:21:05;;;;;;;2.07;1.53;;;;;;;9.55;100.00;97823.06;5101519;28;20602;-64
2022/09/17 02:23:36;;;;;;;1.67;1.40;;;;;;;9.43;100.00;97828.38;5098830;28;20258;-63
2022/09/17 02:26:09;;;;;;;2.27;1.20;;;;;;;9.35;100.00;97820.97;5101522;28;20562;-63
2022/09/17 02:28:42;;;;;;;3.30;1.50;;;;;;;9.35;100.00;97817.47;5101376;28;20263;-62
2022/09/17 02:31:09;;;;;;;2.83;1.47;;;;;;;9.28;100.00;97826.78;5101616;28;20225;-62
2022/09/17 02:33:40;;;;;;;1.37;1.20;;;;;;;9.29;100.00;97823.19;5101946;28;20596;-62
2022/09/17 02:36:07;;;;;;;1.30;1.10;;;;;;;9.23;100.00;97823.63;5101292;28;20354;-62
2022/09/17 02:38:34;;;;;;;2.47;1.40;;;;;;;9.17;100.00;97821.41;5101185;28;20265;-62
2022/09/17 02:41:09;;;;;;;2.50;1.33;;;;;;;9.15;100.00;97823.28;5103339;28;20243;-62
2022/09/17 02:43:48;;;;;;;2.30;1.23;;;;;;;9.13;100.00;97826.03;5095004;28;20308;-62
2022/09/17 02:46:31;;;;;;;3.13;1.27;;;;;;;9.21;100.00;97826.38;5101094;28;20305;-62
2022/09/17 02:49:18;;;;;;;2.80;1.43;;;;;;;9.36;100.00;97819.19;5103772;28;20265;-62
2022/09/17 02:51:53;;;;;;;3.33;1.50;;;;;;;9.52;100.00;97833.00;5100994;28;20315;-62
2022/09/17 02:54:26;;;;;;;1.10;1.00;;;;;;;9.65;100.00;97818.84;5093697;28;20259;-62
2022/09/17 02:57:05;;;;;;;1.90;1.30;;;;;;;9.62;100.00;97818.22;5101961;28;20276;-62
2022/09/17 02:59:40;;;;;;;2.70;1.60;;;;;;;9.67;100.00;97822.22;5100869;28;20338;-63
2022/09/17 03:02:16;;;;;;;3.60;1.73;;;;;;;9.76;100.00;97810.16;5092099;28;20301;-62
2022/09/17 03:04:46;;;;;;;1.23;1.10;;;;;;;9.71;100.00;97807.84;5103559;28;20225;-62
2022/09/17 03:07:14;;;;;;;1.60;1.40;;;;;;;9.67;100.00;97810.81;5100427;28;20533;-63
2022/09/17 03:09:42;;;;;;;2.00;1.27;;;;;;;9.60;100.00;97813.03;5100654;28;20262;-62
2022/09/17 03:12:09;;;;;;;3.17;1.50;;;;;;;9.48;100.00;97815.72;5100631;28;20640;-62
2022/09/17 03:14:35;;;;;;;1.67;1.23;;;;;;;9.37;100.00;97820.88;5103365;28;20246;-62
2022/09/17 03:17:02;;;;;;;1.57;1.30;;;;;;;9.25;100.00;97821.72;5100590;28;20262;-62
2022/09/17 03:19:29;;;;;;;2.23;1.60;;;;;;;9.16;100.00;97822.34;5100297;28;20281;-62
2022/09/17 03:21:57;;;;;;;3.63;1.40;;;;;;;9.12;100.00;97820.88;5098723;28;20272;-62
2022/09/17 03:24:23;;;;;;;2.93;1.27;;;;;;;9.04;100.00;97826.66;5101081;28;20257;-62
2022/09/17 03:26:51;;;;;;;4.70;1.60;;;;;;;9.10;100.00;97825.38;5100481;28;20268;-62
2022/09/17 03:29:17;;;;;;;1.30;1.00;;;;;;;9.18;100.00;97818.66;5100395;28;20650;-62
2022/09/17 03:31:44;;;;;;;3.63;1.37;;;;;;;9.25;100.00;97824.38;5100363;28;20525;-62
2022/09/17 03:34:11;;;;;;;1.50;1.40;;;;;;;9.18;100.00;97823.91;5103000;28;20261;-63
2022/09/17 03:36:38;;;;;;;4.53;1.80;;;;;;;9.08;100.00;97827.28;5100170;28;20575;-63
2022/09/17 03:39:06;;;;;;;2.73;1.67;;;;;;;9.00;100.00;97824.34;5100128;28;20225;-62
2022/09/17 03:41:32;;;;;;;2.87;1.60;;;;;;;9.00;100.00;97834.91;5100061;28;20278;-62
2022/09/17 03:43:59;;;;;;;3.57;2.10;;;;;;;8.90;100.00;97833.81;5102627;28;20286;-63
2022/09/17 03:46:26;;;;;;;2.70;1.73;;;;;;;8.85;100.00;97833.28;5100080;28;20531;-62
2022/09/17 03:48:52;;;;;;;4.37;1.80;;;;;;;8.83;100.00;97841.31;5098197;28;20265;-64
2022/09/17 03:51:19;;;;;;;2.93;1.57;;;;;;;8.80;100.00;97838.84;5099767;28;20288;-62
2022/09/17 03:53:46;;;;;;;2.97;1.63;;;;;;;8.81;100.00;97839.72;5101979;28;20312;-62
2022/09/17 03:56:14;;;;;;;3.63;1.70;;;;;;;8.81;100.00;97839.72;5100253;28;20267;-62
2022/09/17 03:58:41;;;;;;;2.80;1.57;;;;;;;8.81;100.00;97844.97;5099671;28;20655;-63
2022/09/17 04:01:08;;;;;;;3.60;1.90;;;;;;;8.78;100.00;97839.91;5099739;28;20241;-62
2022/09/17 04:03:35;;;;;;;3.00;1.63;;;;;;;8.76;100.00;97847.06;5101727;28;20257;-62
2022/09/17 04:06:02;;;;;;;4.50;1.60;;;;;;;8.74;100.00;97849.81;5100057;28;20267;-62
2022/09/17 04:08:28;;;;;;;2.83;1.60;;;;;;;8.73;100.00;97857.81;5097891;28;20315;-62
2022/09/17 04:10:55;;;;;;;2.53;1.50;;;;;;;8.69;100.00;97851.88;5099625;28;20281;-62
2022/09/17 04:13:23;;;;;;;3.90;1.70;;;;;;;8.72;100.00;97853.47;5099234;28;20354;-63
2022/09/17 04:15:50;;;;;;;4.37;1.70;;;;;;;8.70;100.00;97847.47;5100480;28;20280;-62
2022/09/17 04:18:17;;;;;;;2.20;1.67;;;;;;;8.68;100.00;97849.34;5098764;28;20255;-62
2022/09/17 04:20:44;;;;;;;3.90;1.60;;;;;;;8.80;100.00;97851.16;5090077;28;20281;-62
2022/09/17 04:23:12;;;;;;;2.00;1.80;;;;;;;8.95;100.00;97860.72;5100708;28;20256;-62
2022/09/17 04:25:39;;;;;;;2.37;1.57;;;;;;;9.21;100.00;97854.50;5100486;28;20231;-62
2022/09/17 04:28:05;;;;;;;2.40;1.50;;;;;;;9.41;100.00;97856.63;5099329;28;20673;-62
2022/09/17 04:30:33;;;;;;;4.30;2.13;;;;;;;9.55;100.00;97853.91;5099356;28;20255;-62
2022/09/17 04:33:00;;;;;;;2.87;1.70;;;;;;;9.69;100.00;97857.28;5100654;28;20265;-63
2022/09/17 04:35:27;;;;;;;3.73;1.60;;;;;;;9.73;100.00;97857.88;5100639;28;20267;-62
2022/09/17 04:37:54;;;;;;;2.50;1.60;;;;;;;9.84;100.00;97860.63;5099190;28;20261;-63
2022/09/17 04:40:21;;;;;;;2.47;1.60;;;;;;;9.91;100.00;97867.97;5097478;28;20284;-64
2022/09/17 04:42:48;;;;;;;3.03;1.70;;;;;;;9.93;100.00;97867.88;5100470;28;20283;-62
2022/09/17 04:45:15;;;;;;;3.50;1.70;;;;;;;9.93;100.00;97865.25;5100707;28;20275;-62
2022/09/17 04:47:43;;;;;;;3.47;1.60;;;;;;;9.96;100.00;97865.00;5099330;28;20662;-62
2022/09/17 04:50:09;;;;;;;5.97;1.80;;;;;;;10.02;100.00;97869.84;5099400;28;20258;-62
2022/09/17 04:52:36;;;;;;;3.57;1.80;;;;;;;10.00;100.00;97872.63;5100195;28;20300;-62
2022/09/17 04:55:04;;;;;;;2.53;1.80;;;;;;;9.92;100.00;97864.38;5100864;28;20279;-62
2022/09/17 04:57:30;;;;;;;5.37;1.90;;;;;;;9.92;100.00;97879.41;5099210;28;20648;-63
2022/09/17 04:59:57;;;;;;;2.17;1.70;;;;;;;9.85;100.00;97875.50;5099119;28;20265;-62
2022/09/17 05:02:23;;;;;;;3.90;1.67;;;;;;;9.84;100.00;97881.75;5099674;28;20263;-62
2022/09/17 05:04:51;;;;;;;3.17;1.50;;;;;;;9.76;100.00;97889.34;5101185;28;20271;-62
2022/09/17 05:07:18;;;;;;;3.17;1.87;;;;;;;9.63;100.00;97888.50;5097583;28;20395;-62
2022/09/17 05:09:45;;;;;;;2.67;1.57;;;;;;;9.65;100.00;97876.88;5098974;28;20269;-62
2022/09/17 05:12:11;;;;;;;3.23;2.23;;;;;;;9.68;100.00;97883.75;5099048;28;20229;-62
2022/09/17 05:14:38;;;;;;;2.53;1.80;;;;;;;9.48;100.00;97881.66;5101446;28;20550;-62
2022/09/17 05:17:05;;;;;;;5.40;1.80;;;;;;;9.30;100.00;97883.72;5098959;28;20597;-63
2022/09/17 05:19:31;;;;;;;2.97;1.97;;;;;;;9.14;100.00;97879.59;5098890;28;20262;-62
2022/09/17 05:21:59;;;;;;;2.43;1.93;;;;;;;9.05;100.00;97880.25;5098856;28;20284;-63
2022/09/17 05:24:26;;;;;;;6.20;2.00;;;;;;;9.04;100.00;97886.44;5098770;28;20260;-63
2022/09/17 05:26:53;;;;;;;2.40;1.97;;;;;;;9.09;100.00;97887.84;5098986;28;20308;-63
2022/09/17 05:29:20;;;;;;;3.77;2.30;;;;;;;9.06;100.00;97887.19;5099266;28;20225;-62
2022/09/17 05:31:46;;;;;;;5.47;2.50;;;;;;;9.09;100.00;97892.25;5100758;28;20256;-62
2022/09/17 05:34:13;;;;;;;3.80;2.03;;;;;;;9.15;100.00;97886.56;5105339;28;20228;-63
2022/09/17 05:36:40;;;;;;;2.80;1.97;;;;;;;9.13;100.00;97878.75;5102598;28;20348;-63
2022/09/17 05:39:08;;;;;;;4.47;2.20;;;;;;;9.20;100.00;97900.28;5102663;28;20347;-62
2022/09/17 05:41:34;;;;;;;3.23;2.30;;;;;;;9.25;100.00;97899.03;5102437;28;20247;-63
2022/09/17 05:44:01;;;;;;;3.93;1.90;;;;;;;9.30;100.00;97906.66;5105238;28;20692;-65
2022/09/17 05:46:28;;;;;;;3.60;2.20;;;;;;;9.36;100.00;97903.59;5102319;28;20313;-63
2022/09/17 05:48:56;;;;;;;5.50;2.40;;;;;;;9.43;100.00;97903.03;5102419;28;20264;-63
2022/09/17 05:51:22;;;;;;;2.93;1.97;;;;;;;9.57;100.00;97897.69;5102244;28;20247;-63
2022/09/17 05:53:49;;;;;;;5.03;2.30;;;;;;;9.68;100.00;97902.22;5105011;28;20310;-62
2022/09/17 05:56:18;;;;;;;3.67;2.00;;;;;;;9.90;100.00;97907.72;5102214;28;20261;-63
2022/09/17 05:58:44;;;;;;;3.20;1.83;;;;;;;9.97;100.00;97908.97;5100312;28;20230;-62
2022/09/17 06:01:14;;;;;;;5.67;2.07;;;;;;;10.08;100.00;97911.69;5102037;28;20278;-63
2022/09/17 06:03:41;;;;;;;6.73;2.10;;;;;;;10.21;100.00;97917.81;5104777;28;20308;-63
2022/09/17 06:06:09;;;;;;;5.83;2.30;;;;;;;10.21;100.00;97913.38;5101955;28;20604;-63
2022/09/17 06:08:36;;;;;;;4.93;2.17;;;;;;;10.18;100.00;97913.59;5101791;28;20578;-62
2022/09/17 06:11:04;;;;;;;5.70;2.13;;;;;;;10.17;100.00;97916.34;5101821;28;20220;-63
2022/09/17 06:13:32;;;;;;;3.27;1.80;;;;;;;10.19;100.00;97917.94;5104627;28;20249;-63
2022/09/17 06:16:00;;;;;;;5.27;2.30;;;;;;;10.24;100.00;97926.38;5101851;28;20253;-62
2022/09/17 06:18:27;;;;;;;5.97;2.10;;;;;;;10.28;100.00;97934.91;5101712;28;20224;-63
2022/09/17 06:20:54;;;;;;;3.00;1.90;;;;;;;10.30;100.00;97933.00;5101673;28;20369;-62
2022/09/17 06:23:22;;;;;;;2.93;2.00;;;;;;;10.45;100.00;97937.22;5102506;28;20218;-63
2022/09/17 06:25:54;;;;;;;4.77;2.10;;;;;;;10.58;100.00;97945.94;5101889;28;20228;-62
2022/09/17 06:28:21;;;;;;;4.27;2.10;;;;;;;10.67;100.00;97947.91;5101702;28;20269;-62
2022/09/17 06:30:51;;;;;;;4.10;2.17;;;;;;;10.74;97.87;97949.16;5101631;28;20262;-62
2022/09/17 06:33:18;;;;;;;5.47;2.40;;;;;;;10.74;99.09;97949.16;5098927;28;20641;-62
2022/09/17 06:35:44;;;;;;;3.23;2.10;;;;;;;10.79;99.48;97947.00;5101424;28;20310;-62
2022/09/17 06:38:11;;;;;;;3.20;2.00;;;;;;;10.93;98.43;97944.19;5101358;28;20278;-62
2022/09/17 06:40:38;;;;;;;4.13;2.17;;;;;;;11.01;97.96;97944.50;5100818;28;20281;-61
2022/09/17 06:43:04;;;;;;;4.60;2.40;;;;;;;11.11;97.87;97942.84;5103423;28;20256;-62
2022/09/17 06:45:31;;;;;;;4.03;1.73;;;;;;;11.17;96.21;97950.31;5101231;28;20226;-61
2022/09/17 06:48:03;;;;;;;5.60;2.00;;;;;;;11.15;95.27;97944.31;5101125;28;20267;-62
2022/09/17 06:50:30;;;;;;;4.17;2.27;;;;;;;11.05;94.31;97949.44;5099314;28;20226;-62
2022/09/17 06:52:57;;;;;;;2.33;1.73;;;;;;;10.92;96.26;97953.94;5100908;28;20281;-65
2022/09/17 06:55:23;;;;;;;2.60;2.10;;;;;;;10.81;98.76;97953.88;5101034;28;20266;-62
2022/09/17 06:57:50;;;;;;;6.90;2.17;;;;;;;10.69;100.00;97956.56;5100955;28;20262;-64
2022/09/17 07:00:17;;;;;;;4.20;2.23;;;;;;;10.59;100.00;97960.84;5101001;28;20574;-63
2022/09/17 07:02:43;;;;;;;2.67;2.00;;;;;;;10.36;100.00;97961.63;5103673;28;20246;-63
2022/09/17 07:05:11;;;;;;;4.60;1.93;;;;;;;10.26;100.00;97957.94;5100847;28;20266;-63
2022/09/17 07:07:40;;;;;;;4.63;2.23;;;;;;;10.32;100.00;97961.00;5100782;28;20266;-63
2022/09/17 07:10:07;;;;;;;3.23;2.20;;;;;;;10.41;100.00;97956.88;5100754;28;20229;-64
2022/09/17 07:12:34;;;;;;;3.73;2.20;;;;;;;10.40;100.00;97965.75;5103491;28;20263;-64
2022/09/17 07:15:01;;;;;;;3.47;2.00;;;;;;;10.45;100.00;97958.34;5100140;28;20263;-62
2022/09/17 07:17:29;;;;;;;5.30;2.30;;;;;;;10.49;100.00;97963.28;5099541;28;20324;-62
2022/09/17 07:19:56;;;;;;;4.20;2.53;;;;;;;10.52;100.00;97959.59;5099522;28;20337;-62
2022/09/17 07:22:25;;;;;;;3.07;2.13;;;;;;;10.52;100.00;97980.72;5100435;28;20241;-62
2022/09/17 07:24:52;;;;;;;5.47;2.70;;;;;;;10.44;100.00;97977.78;5099148;28;20282;-62
2022/09/17 07:27:18;;;;;;;4.33;2.50;;;;;;;10.30;100.00;97984.06;5099071;28;20269;-62
2022/09/17 07:29:45;;;;;;;3.53;2.43;;;;;;;10.22;100.00;97985.53;5099034;28;20294;-62
2022/09/17 07:32:12;;;;;;;6.10;2.57;;;;;;;10.13;100.00;97983.53;5101831;28;20639;-62
2022/09/17 07:34:38;;;;;;;3.77;2.23;;;;;;;10.08;100.00;97986.50;5098940;28;20262;-63
2022/09/17 07:37:05;;;;;;;3.73;2.20;;;;;;;10.14;100.00;97990.50;5098826;28;20238;-63
2022/09/17 07:39:33;;;;;;;3.90;2.30;;;;;;;10.23;100.00;97989.88;5098978;28;20258;-63
2022/09/17 07:42:00;;;;;;;4.10;2.63;;;;;;;10.28;100.00;98000.97;5099924;28;20547;-62
2022/09/17 07:44:27;;;;;;;4.83;2.53;;;;;;;10.28;100.00;97990.41;5098949;28;20276;-62
2022/09/17 07:46:54;;;;;;;3.67;2.40;;;;;;;10.22;100.00;97994.28;5098935;28;20601;-62
2022/09/17 07:49:20;;;;;;;4.80;2.63;;;;;;;10.23;100.00;97993.38;5098747;28;20223;-63
2022/09/17 07:51:47;;;;;;;4.17;2.60;;;;;;;10.26;100.00;98000.19;5101056;28;20308;-62
2022/09/17 07:54:14;;;;;;;3.73;2.60;;;;;;;10.30;100.00;97996.41;5098508;28;20238;-63
2022/09/17 07:56:43;;;;;;;2.97;2.73;;;;;;;10.36;100.00;98001.25;5098579;28;20648;-63
2022/09/17 07:59:10;;;;;;;3.00;2.70;;;;;;;10.43;100.00;97999.88;5098607;28;20536;-63
2022/09/17 08:01:37;;;;;;;4.20;2.93;;;;;;;10.30;100.00;97999.03;5100955;28;20251;-62
2022/09/17 08:04:04;;;;;;;4.43;3.00;;;;;;;10.45;100.00;98004.09;5098496;28;20272;-62
2022/09/17 08:06:32;;;;;;;3.40;2.53;;;;;;;10.72;100.00;98006.56;5098428;28;20310;-62
2022/09/17 08:09:00;;;;;;;3.97;2.60;;;;;;;10.89;100.00;98006.22;5096755;28;20222;-63
2022/09/17 08:11:30;;;;;;;4.10;2.57;;;;;;;11.04;100.00;98007.72;5100923;28;20225;-63
2022/09/17 08:13:58;;;;;;;4.83;2.80;;;;;;;11.13;100.00;98015.84;5091826;28;20307;-63
2022/09/17 08:16:25;;;;;;;4.07;2.83;;;;;;;11.23;100.00;98008.91;5098272;28;20641;-63
2022/09/17 08:18:55;;;;;;;4.40;2.70;;;;;;;11.35;100.00;98010.66;5098389;28;20229;-66
2022/09/17 08:21:22;;;;;;;5.73;2.90;;;;;;;11.37;100.00;98013.19;5100932;28;20734;-63
2022/09/17 08:23:48;;;;;;;4.97;2.67;;;;;;;11.55;100.00;98012.66;5094032;28;20225;-63
2022/09/17 08:26:17;;;;;;;4.50;2.50;;;;;;;11.73;100.00;98006.00;5096679;28;20647;-64
2022/09/17 08:28:46;;;;;;;4.53;3.20;;;;;;;11.87;100.00;98007.63;5096299;28;20317;-62
2022/09/17 08:31:17;;;;;;;3.93;2.30;;;;;;;12.08;100.00;98021.84;5100206;28;20649;-62
2022/09/17 08:33:45;;;;;;;4.67;2.50;;;;;;;12.08;100.00;98016.56;5097300;28;20313;-63
2022/09/17 08:36:14;;;;;;;3.73;2.80;;;;;;;11.97;98.83;98012.09;5096850;28;20265;-63
2022/09/17 08:38:41;;;;;;;4.07;2.30;;;;;;;11.73;98.74;98016.59;5098155;28;20250;-63
2022/09/17 08:41:20;;;;;;;3.90;2.40;;;;;;;11.55;100.00;98017.94;5095316;28;20263;-63
2022/09/17 08:43:55;;;;;;;6.33;2.60;;;;;;;11.65;100.00;98020.78;5097986;28;20245;-64
2022/09/17 08:46:24;;;;;;;2.30;2.10;;;;;;;11.75;100.00;98008.56;5090039;28;20226;-63
2022/09/17 08:49:01;;;;;;;5.43;2.83;;;;;;;11.87;100.00;98013.75;5100905;28;20233;-65
2022/09/17 08:51:38;;;;;;;4.63;2.33;;;;;;;11.81;100.00;98010.72;5097901;28;20243;-64
2022/09/17 08:54:11;;;;;;;5.93;2.47;;;;;;;11.88;98.94;98015.47;5088640;28;20645;-64
2022/09/17 08:56:39;;;;;;;5.23;2.20;;;;;;;11.99;98.93;98027.88;5100121;28;20226;-63
2022/09/17 08:59:21;;;;;;;4.90;2.30;;;;;;;12.34;98.96;98024.19;5098161;28;20230;-63
2022/09/17 09:02:00;;;;;;;5.87;2.17;;;;;;;12.60;94.91;98024.81;5096179;28;20284;-63
2022/09/17 09:04:54;;;;;;;6.50;2.27;;;;;;;12.73;94.78;98030.81;5100299;28;20607;-63
2022/09/17 09:07:25;;;;;;;6.47;2.40;;;;;;;12.85;93.67;98037.81;5097542;28;20224;-64
2022/09/17 09:09:59;;;;;;;5.30;2.10;;;;;;;12.84;93.12;98028.16;5092733;28;20275;-63
2022/09/17 09:12:31;;;;;;;5.23;2.37;;;;;;;12.89;93.90;98033.94;5104217;28;20220;-63
2022/09/17 09:15:01;;;;;;;6.07;2.43;;;;;;;12.89;88.94;98032.13;5095304;28;20695;-63
2022/09/17 09:17:38;;;;;;;5.63;2.40;;;;;;;12.59;88.30;98029.25;5101545;28;20226;-63
2022/09/17 09:20:12;;;;;;;4.83;2.50;;;;;;;12.55;89.76;98034.91;5102401;28;20559;-64
2022/09/17 09:22:47;;;;;;;5.30;2.07;;;;;;;12.45;90.16;98031.28;5101087;28;20272;-63
2022/09/17 09:25:22;;;;;;;9.33;2.60;;;;;;;12.53;92.45;98023.59;5101368;28;20540;-64
2022/09/17 09:28:02;;;;;;;4.47;2.07;;;;;;;12.61;91.14;98031.78;5099617;28;20264;-65
2022/09/17 09:30:36;;;;;;;6.23;1.83;;;;;;;12.79;89.28;98027.69;5100247;28;20259;-63
2022/09/17 09:33:13;;;;;;;5.10;2.10;;;;;;;12.86;89.31;98036.81;5101201;28;20224;-63
2022/09/17 09:35:42;;;;;;;7.20;2.40;;;;;;;12.84;86.29;98033.47;5101173;28;20228;-64
2022/09/17 09:38:18;;;;;;;4.67;1.97;;;;;;;12.78;86.56;98026.00;5098353;28;20263;-62
2022/09/17 09:40:51;;;;;;;4.57;1.60;;;;;;;12.74;86.20;98035.16;5101166;28;20274;-65
2022/09/17 09:43:22;;;;;;;4.83;2.00;;;;;;;12.78;85.21;98031.31;5092096;28;20275;-64
2022/09/17 09:46:17;;;;;;;3.07;2.50;;;;;;;12.98;85.70;98027.91;5103282;28;20267;-65
2022/09/17 09:48:57;;;;;;;5.53;2.37;;;;;;;12.92;85.34;98031.03;5097522;28;20289;-64
2022/09/17 09:51:38;;;;;;;5.47;2.13;;;;;;;12.91;85.56;98032.81;5100687;28;20602;-64
2022/09/17 09:54:18;;;;;;;4.70;1.83;;;;;;;13.03;83.32;98031.06;5098138;28;20631;-65
2022/09/17 09:56:55;;;;;;;4.93;2.07;;;;;;;13.07;81.04;98029.84;5100813;28;20229;-64
2022/09/17 09:59:22;;;;;;;3.93;1.90;;;;;;;13.01;81.42;98025.03;5101259;28;20228;-64
2022/09/17 10:01:49;;;;;;;5.17;2.20;;;;;;;12.92;83.35;98031.03;5102685;28;20273;-64
2022/09/17 10:04:20;;;;;;;2.67;1.90;;;;;;;12.88;85.69;98029.59;5100643;28;20226;-65
2022/09/17 10:06:51;;;;;;;3.30;2.00;;;;;;;12.94;86.19;98026.44;5100674;28;20226;-64
2022/09/17 10:09:21;;;;;;;4.40;2.07;;;;;;;12.98;86.40;98022.63;5101797;28;20640;-65
2022/09/17 10:12:04;;;;;;;4.77;2.03;;;;;;;12.88;84.69;98018.97;5101342;28;20230;-65
2022/09/17 10:14:33;;;;;;;4.20;1.97;;;;;;;12.60;88.58;98024.81;5097773;28;20639;-64
2022/09/17 10:17:14;;;;;;;6.97;2.50;;;;;;;12.40;90.71;98029.00;5099096;28;20226;-64
2022/09/17 10:19:42;;;;;;;4.90;2.20;;;;;;;12.34;91.76;98028.66;5097947;28;20322;-64
2022/09/17 10:22:29;;;;;;;4.37;1.90;;;;;;;12.58;90.88;98024.06;5100456;28;20314;-64
2022/09/17 10:24:57;;;;;;;5.03;2.20;;;;;;;13.00;86.83;98018.88;5094590;28;20299;-64
2022/09/17 10:27:25;;;;;;;3.10;1.93;;;;;;;13.39;82.80;98015.63;5102222;28;20343;-64
2022/09/17 10:30:01;;;;;;;4.50;1.83;;;;;;;13.69;82.18;98012.25;5100340;28;20267;-63
2022/09/17 10:32:28;;;;;;;4.77;2.20;;;;;;;13.82;80.99;98010.25;5091327;28;20222;-63
2022/09/17 10:35:03;;;;;;;3.57;1.90;;;;;;;14.01;82.12;98003.28;5101874;28;20257;-64
2022/09/17 10:37:43;;;;;;;4.77;1.80;;;;;;;14.22;81.28;98001.47;5093246;28;20231;-64
2022/09/17 10:40:31;;;;;;;4.10;2.00;;;;;;;14.47;81.17;97997.50;5100028;28;20579;-64
2022/09/17 10:43:27;;;;;;;4.13;2.07;;;;;;;14.65;77.89;97988.78;5098078;28;20345;-63
2022/09/17 10:45:59;;;;;;;4.33;1.63;;;;;;;14.62;76.76;98001.50;5098064;28;20261;-63
2022/09/17 10:48:30;;;;;;;3.13;1.60;;;;;;;14.68;75.81;97987.66;5100040;28;20258;-64
2022/09/17 10:51:01;;;;;;;4.70;1.70;;;;;;;15.02;76.40;97997.03;5099589;28;20605;-63
2022/09/17 10:53:28;;;;;;;4.13;1.80;;;;;;;15.35;71.41;97988.69;5099683;28;20298;-62
2022/09/17 10:56:04;;;;;;;3.93;1.87;;;;;;;15.53;70.28;97984.38;5099645;28;20258;-64
2022/09/17 10:58:43;;;;;;;2.73;1.60;;;;;;;15.70;70.27;97983.66;5101306;28;20520;-64
2022/09/17 11:01:22;;;;;;;3.87;1.50;;;;;;;15.58;66.42;97979.47;5093614;28;20231;-64
2022/09/17 11:04:21;;;;;;;3.67;1.57;;;;;;;15.46;68.34;97986.72;5099637;28;20277;-63
2022/09/17 11:07:14;;;;;;;3.20;1.30;;;;;;;15.37;67.08;97987.56;5098022;28;20272;-64
2022/09/17 11:09:51;;;;;;;3.43;1.60;;;;;;;15.48;66.98;97994.59;5099450;28;20317;-63
2022/09/17 11:12:40;;;;;;;3.40;1.80;;;;;;;15.77;67.46;97984.78;5099757;28;20558;-64
2022/09/17 11:15:24;;;;;;;2.87;1.30;;;;;;;15.98;67.87;97981.78;5094819;28;20229;-64
2022/09/17 11:18:12;;;;;;;3.00;1.40;;;;;;;16.04;60.84;97989.22;5091807;28;20264;-63
2022/09/17 11:20:56;;;;;;;4.10;1.10;;;;;;;15.82;59.61;97982.53;5098496;28;20344;-64
2022/09/17 11:23:41;;;;;;;2.13;1.27;;;;;;;15.88;63.10;97981.97;5098540;28;20248;-64
2022/09/17 11:26:16;;;;;;;4.40;1.70;;;;;;;16.02;64.08;97970.84;5101360;28;20226;-64
2022/09/17 11:28:54;;;;;;;2.40;1.40;;;;;;;16.03;60.34;97960.06;5092301;28;20258;-65
2022/09/17 11:31:30;;;;;;;3.07;1.50;;;;;;;16.12;60.75;97971.69;5098916;28;20271;-64
2022/09/17 11:34:31;;;;;;;4.17;1.50;;;;;;;16.08;62.66;97968.44;5100840;28;20269;-64
2022/09/17 11:37:04;;;;;;;3.23;1.47;;;;;;;15.82;59.52;97967.38;5093877;28;20236;-61
2022/09/17 11:39:40;;;;;;;3.63;1.33;;;;;;;15.85;62.64;97971.56;5094334;28;20693;-64
2022/09/17 11:42:12;;;;;;;2.13;1.30;;;;;;;16.00;62.53;97965.66;5098615;28;20241;-64
2022/09/17 11:44:44;;;;;;;2.27;1.20;;;;;;;15.79;59.05;97964.16;5098750;28;20223;-64
2022/09/17 11:47:15;;;;;;;2.83;1.20;;;;;;;15.60;61.25;97956.16;5089525;28;20306;-64
2022/09/17 11:49:49;;;;;;;2.70;1.20;;;;;;;15.55;63.79;97947.75;5100876;28;20229;-64